Terminal Aerodrome Forecast
Issued by NWS

Home | Current Version | Previous Version | Text Only | Print | Product List | Glossary Off
Versions: 1 2 3 4 5 6 7 8 9 10 11 12 13 14 15

000
FTUS43 KGRB 011700
TAFCWA
TAF
KCWA 011727Z 0118/0218 22007KT P6SM SCT050 BKN120
     FM012300 18006KT P6SM SCT070 BKN100
     FM021400 21007KT P6SM SCT050=

USA.gov is the U.S. government's official web portal to all federal, state and local government web resources and services.